sensor_id;sensor_type;location;lat;lon;timestamp;P1;durP1;ratioP1;P2;durP2;ratioP2
64297;SDS011;50639;53.270;7.956;2023-10-09T00:02:05;10.23;;;4.47;;
64297;SDS011;50639;53.270;7.956;2023-10-09T00:04:33;13.75;;;4.93;;
64297;SDS011;50639;53.270;7.956;2023-10-09T00:07:02;14.82;;;4.78;;
64297;SDS011;50639;53.270;7.956;2023-10-09T00:09:34;8.40;;;3.90;;
64297;SDS011;50639;53.270;7.956;2023-10-09T00:12:20;9.45;;;4.22;;
64297;SDS011;50639;53.270;7.956;2023-10-09T00:14:50;10.07;;;4.35;;
64297;SDS011;50639;53.270;7.956;2023-10-09T00:17:36;16.13;;;6.10;;
64297;SDS011;50639;53.270;7.956;2023-10-09T00:20:03;13.15;;;5.38;;
64297;SDS011;50639;53.270;7.956;2023-10-09T00:22:42;15.13;;;4.95;;
64297;SDS011;50639;53.270;7.956;2023-10-09T00:25:10;9.27;;;3.80;;
64297;SDS011;50639;53.270;7.956;2023-10-09T00:27:37;11.63;;;4.57;;
64297;SDS011;50639;53.270;7.956;2023-10-09T00:30:13;8.15;;;3.78;;
64297;SDS011;50639;53.270;7.956;2023-10-09T00:32:54;11.65;;;4.15;;
64297;SDS011;50639;53.270;7.956;2023-10-09T00:35:23;12.45;;;4.35;;
64297;SDS011;50639;53.270;7.956;2023-10-09T00:38:07;8.38;;;3.70;;
64297;SDS011;50639;53.270;7.956;2023-10-09T00:40:44;7.25;;;3.47;;
64297;SDS011;50639;53.270;7.956;2023-10-09T00:43:22;9.68;;;3.85;;
64297;SDS011;50639;53.270;7.956;2023-10-09T00:45:53;16.73;;;4.50;;
64297;SDS011;50639;53.270;7.956;2023-10-09T00:48:19;11.45;;;3.97;;
64297;SDS011;50639;53.270;7.956;2023-10-09T00:50:59;7.53;;;4.13;;
64297;SDS011;50639;53.270;7.956;2023-10-09T00:53:25;8.65;;;3.75;;
64297;SDS011;50639;53.270;7.956;2023-10-09T00:55:57;8.82;;;4.53;;
64297;SDS011;50639;53.270;7.956;2023-10-09T00:58:29;12.27;;;4.55;;
64297;SDS011;50639;53.270;7.956;2023-10-09T01:00:56;10.98;;;3.85;;
64297;SDS011;50639;53.270;7.956;2023-10-09T01:03:24;9.80;;;3.85;;
64297;SDS011;50639;53.270;7.956;2023-10-09T01:05:54;8.25;;;3.85;;
64297;SDS011;50639;53.270;7.956;2023-10-09T01:08:21;7.82;;;3.67;;
64297;SDS011;50639;53.270;7.956;2023-10-09T01:11:01;10.27;;;3.78;;
64297;SDS011;50639;53.270;7.956;2023-10-09T01:13:39;10.73;;;4.40;;
64297;SDS011;50639;53.270;7.956;2023-10-09T01:16:11;12.65;;;4.43;;
64297;SDS011;50639;53.270;7.956;2023-10-09T01:18:44;16.35;;;4.40;;
64297;SDS011;50639;53.270;7.956;2023-10-09T01:21:11;13.82;;;5.10;;
64297;SDS011;50639;53.270;7.956;2023-10-09T01:23:43;8.80;;;3.60;;
64297;SDS011;50639;53.270;7.956;2023-10-09T01:26:35;10.00;;;3.70;;
64297;SDS011;50639;53.270;7.956;2023-10-09T01:29:08;12.60;;;4.37;;
64297;SDS011;50639;53.270;7.956;2023-10-09T01:31:46;9.93;;;3.88;;
64297;SDS011;50639;53.270;7.956;2023-10-09T01:34:29;10.10;;;4.45;;
64297;SDS011;50639;53.270;7.956;2023-10-09T01:37:18;9.77;;;3.65;;
64297;SDS011;50639;53.270;7.956;2023-10-09T01:39:48;7.43;;;3.80;;
64297;SDS011;50639;53.270;7.956;2023-10-09T01:42:17;12.02;;;3.95;;
64297;SDS011;50639;53.270;7.956;2023-10-09T01:45:02;10.43;;;4.15;;
64297;SDS011;50639;53.270;7.956;2023-10-09T01:47:38;10.23;;;4.05;;
64297;SDS011;50639;53.270;7.956;2023-10-09T01:50:05;10.68;;;3.60;;
64297;SDS011;50639;53.270;7.956;2023-10-09T01:52:43;9.73;;;3.90;;
64297;SDS011;50639;53.270;7.956;2023-10-09T01:55:09;10.82;;;3.90;;
64297;SDS011;50639;53.270;7.956;2023-10-09T01:57:38;13.32;;;4.60;;
64297;SDS011;50639;53.270;7.956;2023-10-09T02:00:04;10.18;;;3.63;;
64297;SDS011;50639;53.270;7.956;2023-10-09T02:02:37;9.43;;;3.97;;
64297;SDS011;50639;53.270;7.956;2023-10-09T02:05:04;9.65;;;3.85;;
64297;SDS011;50639;53.270;7.956;2023-10-09T02:07:40;13.53;;;4.20;;
64297;SDS011;50639;53.270;7.956;2023-10-09T02:10:26;9.65;;;4.32;;
64297;SDS011;50639;53.270;7.956;2023-10-09T02:13:04;8.88;;;4.00;;
64297;SDS011;50639;53.270;7.956;2023-10-09T02:15:38;11.52;;;3.92;;
64297;SDS011;50639;53.270;7.956;2023-10-09T02:18:13;8.25;;;3.65;;
64297;SDS011;50639;53.270;7.956;2023-10-09T02:20:53;8.65;;;3.90;;
64297;SDS011;50639;53.270;7.956;2023-10-09T02:23:31;12.45;;;4.10;;
64297;SDS011;50639;53.270;7.956;2023-10-09T02:26:12;11.88;;;4.90;;
64297;SDS011;50639;53.270;7.956;2023-10-09T02:28:45;10.55;;;5.03;;
64297;SDS011;50639;53.270;7.956;2023-10-09T02:31:18;9.43;;;4.35;;
64297;SDS011;50639;53.270;7.956;2023-10-09T02:33:47;8.57;;;4.22;;
64297;SDS011;50639;53.270;7.956;2023-10-09T02:36:16;19.10;;;4.47;;
64297;SDS011;50639;53.270;7.956;2023-10-09T02:38:41;14.32;;;5.10;;
64297;SDS011;50639;53.270;7.956;2023-10-09T02:41:07;11.43;;;4.20;;
64297;SDS011;50639;53.270;7.956;2023-10-09T02:43:45;17.88;;;5.38;;
64297;SDS011;50639;53.270;7.956;2023-10-09T02:46:11;15.40;;;5.35;;
64297;SDS011;50639;53.270;7.956;2023-10-09T02:48:43;13.30;;;4.60;;
64297;SDS011;50639;53.270;7.956;2023-10-09T02:51:17;12.50;;;4.97;;
64297;SDS011;50639;53.270;7.956;2023-10-09T02:53:55;13.65;;;5.05;;
64297;SDS011;50639;53.270;7.956;2023-10-09T02:56:22;15.68;;;5.70;;
64297;SDS011;50639;53.270;7.956;2023-10-09T02:59:07;14.60;;;5.22;;
64297;SDS011;50639;53.270;7.956;2023-10-09T03:01:37;12.48;;;4.65;;
64297;SDS011;50639;53.270;7.956;2023-10-09T03:04:04;13.13;;;5.28;;
64297;SDS011;50639;53.270;7.956;2023-10-09T03:06:30;13.77;;;5.70;;
64297;SDS011;50639;53.270;7.956;2023-10-09T03:08:58;10.68;;;5.05;;
64297;SDS011;50639;53.270;7.956;2023-10-09T03:11:23;14.57;;;6.22;;
64297;SDS011;50639;53.270;7.956;2023-10-09T03:13:52;10.57;;;5.40;;
64297;SDS011;50639;53.270;7.956;2023-10-09T03:16:18;16.77;;;6.30;;
64297;SDS011;50639;53.270;7.956;2023-10-09T03:18:46;12.70;;;5.88;;
64297;SDS011;50639;53.270;7.956;2023-10-09T03:21:14;11.60;;;5.50;;
64297;SDS011;50639;53.270;7.956;2023-10-09T03:23:44;12.57;;;5.68;;
64297;SDS011;50639;53.270;7.956;2023-10-09T03:26:14;15.70;;;5.90;;
64297;SDS011;50639;53.270;7.956;2023-10-09T03:28:43;16.13;;;6.70;;
64297;SDS011;50639;53.270;7.956;2023-10-09T03:31:10;16.60;;;6.80;;
64297;SDS011;50639;53.270;7.956;2023-10-09T03:33:36;16.88;;;6.55;;
64297;SDS011;50639;53.270;7.956;2023-10-09T03:36:02;14.77;;;7.43;;
64297;SDS011;50639;53.270;7.956;2023-10-09T03:38:27;13.48;;;6.55;;
64297;SDS011;50639;53.270;7.956;2023-10-09T03:41:01;21.33;;;8.35;;
64297;SDS011;50639;53.270;7.956;2023-10-09T03:43:31;13.98;;;7.53;;
64297;SDS011;50639;53.270;7.956;2023-10-09T03:46:09;16.15;;;8.13;;
64297;SDS011;50639;53.270;7.956;2023-10-09T03:48:47;21.10;;;10.35;;
64297;SDS011;50639;53.270;7.956;2023-10-09T03:51:13;19.23;;;9.75;;
64297;SDS011;50639;53.270;7.956;2023-10-09T03:53:41;15.80;;;7.65;;
64297;SDS011;50639;53.270;7.956;2023-10-09T03:56:07;19.35;;;8.68;;
64297;SDS011;50639;53.270;7.956;2023-10-09T03:58:42;19.83;;;8.60;;
64297;SDS011;50639;53.270;7.956;2023-10-09T04:01:12;18.83;;;8.77;;
64297;SDS011;50639;53.270;7.956;2023-10-09T04:03:54;26.90;;;11.05;;
64297;SDS011;50639;53.270;7.956;2023-10-09T04:06:28;20.30;;;10.10;;
64297;SDS011;50639;53.270;7.956;2023-10-09T04:09:01;26.15;;;10.52;;
64297;SDS011;50639;53.270;7.956;2023-10-09T04:11:49;18.15;;;9.05;;
64297;SDS011;50639;53.270;7.956;2023-10-09T04:14:34;27.17;;;12.32;;
64297;SDS011;50639;53.270;7.956;2023-10-09T04:17:00;19.17;;;9.18;;
64297;SDS011;50639;53.270;7.956;2023-10-09T04:19:30;23.13;;;10.93;;
64297;SDS011;50639;53.270;7.956;2023-10-09T04:22:06;19.70;;;10.15;;
64297;SDS011;50639;53.270;7.956;2023-10-09T04:24:34;19.00;;;9.32;;
64297;SDS011;50639;53.270;7.956;2023-10-09T04:27:09;16.15;;;9.85;;
64297;SDS011;50639;53.270;7.956;2023-10-09T04:29:35;21.98;;;11.02;;
64297;SDS011;50639;53.270;7.956;2023-10-09T04:32:04;22.60;;;11.90;;
64297;SDS011;50639;53.270;7.956;2023-10-09T04:34:33;23.20;;;11.63;;
64297;SDS011;50639;53.270;7.956;2023-10-09T04:37:03;22.55;;;12.20;;
64297;SDS011;50639;53.270;7.956;2023-10-09T04:39:48;22.42;;;12.10;;
64297;SDS011;50639;53.270;7.956;2023-10-09T04:42:26;24.55;;;12.82;;
64297;SDS011;50639;53.270;7.956;2023-10-09T04:45:01;21.60;;;11.75;;
64297;SDS011;50639;53.270;7.956;2023-10-09T04:47:28;24.10;;;11.80;;
64297;SDS011;50639;53.270;7.956;2023-10-09T04:52:58;24.92;;;13.48;;
64297;SDS011;50639;53.270;7.956;2023-10-09T04:55:44;26.95;;;12.77;;
64297;SDS011;50639;53.270;7.956;2023-10-09T04:58:22;24.67;;;12.70;;
64297;SDS011;50639;53.270;7.956;2023-10-09T05:00:50;28.05;;;13.50;;
64297;SDS011;50639;53.270;7.956;2023-10-09T05:03:29;29.70;;;14.00;;
64297;SDS011;50639;53.270;7.956;2023-10-09T05:06:11;30.50;;;15.75;;
64297;SDS011;50639;53.270;7.956;2023-10-09T05:08:56;38.17;;;16.80;;
64297;SDS011;50639;53.270;7.956;2023-10-09T05:11:33;33.53;;;17.20;;
64297;SDS011;50639;53.270;7.956;2023-10-09T05:14:18;38.95;;;17.42;;
64297;SDS011;50639;53.270;7.956;2023-10-09T05:16:52;36.75;;;19.08;;
64297;SDS011;50639;53.270;7.956;2023-10-09T05:19:21;38.53;;;18.25;;
64297;SDS011;50639;53.270;7.956;2023-10-09T05:22:06;38.20;;;19.55;;
64297;SDS011;50639;53.270;7.956;2023-10-09T05:24:42;36.72;;;19.10;;
64297;SDS011;50639;53.270;7.956;2023-10-09T05:27:10;39.05;;;19.85;;
64297;SDS011;50639;53.270;7.956;2023-10-09T05:29:49;51.60;;;23.20;;
64297;SDS011;50639;53.270;7.956;2023-10-09T05:32:46;47.33;;;21.63;;
64297;SDS011;50639;53.270;7.956;2023-10-09T05:35:13;49.97;;;24.15;;
64297;SDS011;50639;53.270;7.956;2023-10-09T05:37:45;48.63;;;23.33;;
64297;SDS011;50639;53.270;7.956;2023-10-09T05:40:11;41.55;;;21.92;;
64297;SDS011;50639;53.270;7.956;2023-10-09T05:42:47;41.83;;;21.95;;
64297;SDS011;50639;53.270;7.956;2023-10-09T05:45:22;51.63;;;24.10;;
64297;SDS011;50639;53.270;7.956;2023-10-09T05:48:06;44.08;;;24.27;;
64297;SDS011;50639;53.270;7.956;2023-10-09T05:50:52;48.30;;;23.08;;
64297;SDS011;50639;53.270;7.956;2023-10-09T05:53:38;46.88;;;24.08;;
64297;SDS011;50639;53.270;7.956;2023-10-09T05:56:10;45.25;;;23.23;;
64297;SDS011;50639;53.270;7.956;2023-10-09T05:58:55;56.30;;;25.98;;
64297;SDS011;50639;53.270;7.956;2023-10-09T06:01:39;39.55;;;22.65;;
64297;SDS011;50639;53.270;7.956;2023-10-09T06:04:39;45.70;;;25.42;;
64297;SDS011;50639;53.270;7.956;2023-10-09T06:07:20;46.35;;;24.73;;
64297;SDS011;50639;53.270;7.956;2023-10-09T06:09:49;45.45;;;24.02;;
64297;SDS011;50639;53.270;7.956;2023-10-09T06:12:14;46.42;;;24.73;;
64297;SDS011;50639;53.270;7.956;2023-10-09T06:15:02;49.70;;;24.60;;
64297;SDS011;50639;53.270;7.956;2023-10-09T06:17:48;52.30;;;25.90;;
64297;SDS011;50639;53.270;7.956;2023-10-09T06:20:16;41.88;;;23.45;;
64297;SDS011;50639;53.270;7.956;2023-10-09T06:23:11;69.78;;;30.13;;
64297;SDS011;50639;53.270;7.956;2023-10-09T06:26:03;60.60;;;29.80;;
64297;SDS011;50639;53.270;7.956;2023-10-09T06:28:48;42.92;;;23.92;;
64297;SDS011;50639;53.270;7.956;2023-10-09T06:31:15;50.30;;;24.30;;
64297;SDS011;50639;53.270;7.956;2023-10-09T06:34:15;49.95;;;25.02;;
64297;SDS011;50639;53.270;7.956;2023-10-09T06:36:40;44.75;;;23.83;;
64297;SDS011;50639;53.270;7.956;2023-10-09T06:39:18;46.28;;;23.80;;
64297;SDS011;50639;53.270;7.956;2023-10-09T06:42:02;50.65;;;27.40;;
64297;SDS011;50639;53.270;7.956;2023-10-09T06:44:36;52.85;;;27.48;;
64297;SDS011;50639;53.270;7.956;2023-10-09T06:47:17;54.92;;;28.17;;
64297;SDS011;50639;53.270;7.956;2023-10-09T06:49:43;44.70;;;24.98;;
64297;SDS011;50639;53.270;7.956;2023-10-09T06:52:29;43.53;;;23.75;;
64297;SDS011;50639;53.270;7.956;2023-10-09T06:55:15;40.28;;;23.60;;
64297;SDS011;50639;53.270;7.956;2023-10-09T06:57:57;42.05;;;23.33;;
64297;SDS011;50639;53.270;7.956;2023-10-09T07:00:26;33.90;;;21.13;;
64297;SDS011;50639;53.270;7.956;2023-10-09T07:03:14;52.38;;;25.58;;
64297;SDS011;50639;53.270;7.956;2023-10-09T07:05:42;44.40;;;24.52;;
64297;SDS011;50639;53.270;7.956;2023-10-09T07:08:30;50.72;;;25.75;;
64297;SDS011;50639;53.270;7.956;2023-10-09T07:11:02;53.63;;;26.35;;
64297;SDS011;50639;53.270;7.956;2023-10-09T07:13:49;41.60;;;22.70;;
64297;SDS011;50639;53.270;7.956;2023-10-09T07:16:23;39.17;;;22.98;;
64297;SDS011;50639;53.270;7.956;2023-10-09T07:18:49;44.15;;;23.77;;
64297;SDS011;50639;53.270;7.956;2023-10-09T07:21:15;46.58;;;24.83;;
64297;SDS011;50639;53.270;7.956;2023-10-09T07:23:43;43.55;;;24.45;;
64297;SDS011;50639;53.270;7.956;2023-10-09T07:26:14;42.42;;;21.63;;
64297;SDS011;50639;53.270;7.956;2023-10-09T07:28:48;46.20;;;24.90;;
64297;SDS011;50639;53.270;7.956;2023-10-09T07:31:18;44.47;;;23.13;;
64297;SDS011;50639;53.270;7.956;2023-10-09T07:34:05;44.00;;;23.45;;
64297;SDS011;50639;53.270;7.956;2023-10-09T07:36:51;43.45;;;22.38;;
64297;SDS011;50639;53.270;7.956;2023-10-09T07:39:21;51.33;;;26.52;;
64297;SDS011;50639;53.270;7.956;2023-10-09T07:41:48;52.75;;;26.75;;
64297;SDS011;50639;53.270;7.956;2023-10-09T07:44:40;42.47;;;22.85;;
64297;SDS011;50639;53.270;7.956;2023-10-09T07:47:11;53.80;;;27.08;;
64297;SDS011;50639;53.270;7.956;2023-10-09T07:49:45;56.25;;;27.58;;
64297;SDS011;50639;53.270;7.956;2023-10-09T07:52:16;41.45;;;22.38;;
64297;SDS011;50639;53.270;7.956;2023-10-09T07:54:42;48.95;;;25.58;;
64297;SDS011;50639;53.270;7.956;2023-10-09T07:57:19;43.55;;;23.70;;
64297;SDS011;50639;53.270;7.956;2023-10-09T07:59:51;55.10;;;26.13;;
64297;SDS011;50639;53.270;7.956;2023-10-09T08:02:26;46.72;;;23.30;;
64297;SDS011;50639;53.270;7.956;2023-10-09T08:04:58;39.85;;;20.95;;
64297;SDS011;50639;53.270;7.956;2023-10-09T08:07:29;39.60;;;21.70;;
64297;SDS011;50639;53.270;7.956;2023-10-09T08:10:14;42.97;;;21.75;;
64297;SDS011;50639;53.270;7.956;2023-10-09T08:12:42;46.72;;;24.13;;
64297;SDS011;50639;53.270;7.956;2023-10-09T08:15:15;31.40;;;17.85;;
64297;SDS011;50639;53.270;7.956;2023-10-09T08:17:47;40.85;;;20.27;;
64297;SDS011;50639;53.270;7.956;2023-10-09T08:20:22;40.67;;;18.95;;
64297;SDS011;50639;53.270;7.956;2023-10-09T08:22:54;31.33;;;18.23;;
64297;SDS011;50639;53.270;7.956;2023-10-09T08:25:23;39.92;;;20.60;;
64297;SDS011;50639;53.270;7.956;2023-10-09T08:28:01;29.75;;;16.48;;
64297;SDS011;50639;53.270;7.956;2023-10-09T08:30:57;35.22;;;18.58;;
64297;SDS011;50639;53.270;7.956;2023-10-09T08:33:29;33.40;;;16.63;;
64297;SDS011;50639;53.270;7.956;2023-10-09T08:36:09;33.10;;;16.83;;
64297;SDS011;50639;53.270;7.956;2023-10-09T08:38:40;31.92;;;15.38;;
64297;SDS011;50639;53.270;7.956;2023-10-09T08:43:42;30.58;;;16.80;;
64297;SDS011;50639;53.270;7.956;2023-10-09T08:46:17;33.10;;;14.48;;
64297;SDS011;50639;53.270;7.956;2023-10-09T08:48:45;28.40;;;14.07;;
64297;SDS011;50639;53.270;7.956;2023-10-09T08:51:11;28.77;;;14.60;;
64297;SDS011;50639;53.270;7.956;2023-10-09T08:53:37;28.33;;;13.25;;
64297;SDS011;50639;53.270;7.956;2023-10-09T08:56:11;26.30;;;14.23;;
64297;SDS011;50639;53.270;7.956;2023-10-09T08:58:40;34.78;;;15.10;;
64297;SDS011;50639;53.270;7.956;2023-10-09T09:01:06;34.87;;;14.97;;
64297;SDS011;50639;53.270;7.956;2023-10-09T09:03:38;28.95;;;14.25;;
64297;SDS011;50639;53.270;7.956;2023-10-09T09:06:06;35.80;;;15.20;;
64297;SDS011;50639;53.270;7.956;2023-10-09T09:08:32;30.83;;;13.90;;
64297;SDS011;50639;53.270;7.956;2023-10-09T09:13:41;28.48;;;13.00;;
64297;SDS011;50639;53.270;7.956;2023-10-09T09:16:13;23.15;;;11.35;;
64297;SDS011;50639;53.270;7.956;2023-10-09T09:21:20;29.38;;;12.25;;
64297;SDS011;50639;53.270;7.956;2023-10-09T09:23:55;25.30;;;12.32;;
64297;SDS011;50639;53.270;7.956;2023-10-09T09:26:33;32.50;;;11.73;;
64297;SDS011;50639;53.270;7.956;2023-10-09T09:29:05;28.33;;;11.70;;
64297;SDS011;50639;53.270;7.956;2023-10-09T09:31:34;24.08;;;10.20;;
64297;SDS011;50639;53.270;7.956;2023-10-09T09:34:05;24.90;;;10.55;;
64297;SDS011;50639;53.270;7.956;2023-10-09T09:36:51;28.27;;;11.23;;
64297;SDS011;50639;53.270;7.956;2023-10-09T09:39:22;20.38;;;10.10;;
64297;SDS011;50639;53.270;7.956;2023-10-09T09:41:58;24.92;;;11.80;;
64297;SDS011;50639;53.270;7.956;2023-10-09T09:44:32;25.27;;;11.38;;
64297;SDS011;50639;53.270;7.956;2023-10-09T09:47:08;30.52;;;11.60;;
64297;SDS011;50639;53.270;7.956;2023-10-09T09:49:41;21.02;;;9.48;;
64297;SDS011;50639;53.270;7.956;2023-10-09T09:52:08;28.33;;;11.38;;
64297;SDS011;50639;53.270;7.956;2023-10-09T09:54:39;23.25;;;10.70;;
64297;SDS011;50639;53.270;7.956;2023-10-09T09:57:06;22.58;;;11.10;;
64297;SDS011;50639;53.270;7.956;2023-10-09T09:59:37;19.70;;;9.30;;
64297;SDS011;50639;53.270;7.956;2023-10-09T10:02:18;25.35;;;10.85;;
64297;SDS011;50639;53.270;7.956;2023-10-09T10:04:48;25.23;;;10.93;;
64297;SDS011;50639;53.270;7.956;2023-10-09T10:07:18;23.65;;;10.63;;
64297;SDS011;50639;53.270;7.956;2023-10-09T10:09:46;19.73;;;9.32;;
64297;SDS011;50639;53.270;7.956;2023-10-09T10:12:14;26.10;;;9.98;;
64297;SDS011;50639;53.270;7.956;2023-10-09T10:21:33;26.65;;;9.35;;
64297;SDS011;50639;53.270;7.956;2023-10-09T10:29:46;23.55;;;8.48;;
64297;SDS011;50639;53.270;7.956;2023-10-09T10:32:15;20.65;;;8.23;;
64297;SDS011;50639;53.270;7.956;2023-10-09T10:34:51;19.42;;;8.18;;
64297;SDS011;50639;53.270;7.956;2023-10-09T10:37:21;25.60;;;8.73;;
64297;SDS011;50639;53.270;7.956;2023-10-09T10:40:04;27.15;;;8.65;;
64297;SDS011;50639;53.270;7.956;2023-10-09T10:42:47;24.38;;;8.30;;
64297;SDS011;50639;53.270;7.956;2023-10-09T10:45:32;24.20;;;7.60;;
64297;SDS011;50639;53.270;7.956;2023-10-09T10:48:01;23.77;;;7.40;;
64297;SDS011;50639;53.270;7.956;2023-10-09T10:50:32;18.25;;;6.28;;
64297;SDS011;50639;53.270;7.956;2023-10-09T10:53:13;15.80;;;5.70;;
64297;SDS011;50639;53.270;7.956;2023-10-09T10:55:53;15.93;;;6.40;;
64297;SDS011;50639;53.270;7.956;2023-10-09T10:58:41;16.15;;;5.90;;
64297;SDS011;50639;53.270;7.956;2023-10-09T11:01:19;19.00;;;6.20;;
64297;SDS011;50639;53.270;7.956;2023-10-09T11:03:49;12.88;;;4.43;;
64297;SDS011;50639;53.270;7.956;2023-10-09T11:06:24;12.55;;;5.00;;
64297;SDS011;50639;53.270;7.956;2023-10-09T11:09:05;15.48;;;4.78;;
64297;SDS011;50639;53.270;7.956;2023-10-09T11:11:55;10.73;;;4.03;;
64297;SDS011;50639;53.270;7.956;2023-10-09T11:14:44;14.25;;;4.45;;
64297;SDS011;50639;53.270;7.956;2023-10-09T11:17:16;12.77;;;4.97;;
64297;SDS011;50639;53.270;7.956;2023-10-09T11:19:51;12.57;;;4.35;;
64297;SDS011;50639;53.270;7.956;2023-10-09T11:22:17;17.33;;;4.95;;
64297;SDS011;50639;53.270;7.956;2023-10-09T11:24:53;14.32;;;4.50;;
64297;SDS011;50639;53.270;7.956;2023-10-09T11:27:46;11.98;;;4.65;;
64297;SDS011;50639;53.270;7.956;2023-10-09T11:30:15;17.33;;;4.90;;
64297;SDS011;50639;53.270;7.956;2023-10-09T11:33:03;10.70;;;4.13;;
64297;SDS011;50639;53.270;7.956;2023-10-09T11:35:29;9.23;;;3.50;;
64297;SDS011;50639;53.270;7.956;2023-10-09T11:37:59;11.68;;;4.00;;
64297;SDS011;50639;53.270;7.956;2023-10-09T11:40:29;15.10;;;4.88;;
64297;SDS011;50639;53.270;7.956;2023-10-09T11:42:59;11.77;;;4.65;;
64297;SDS011;50639;53.270;7.956;2023-10-09T11:45:26;16.90;;;4.68;;
64297;SDS011;50639;53.270;7.956;2023-10-09T11:47:57;15.02;;;4.65;;
64297;SDS011;50639;53.270;7.956;2023-10-09T11:50:46;16.45;;;4.35;;
64297;SDS011;50639;53.270;7.956;2023-10-09T11:53:22;17.77;;;5.07;;
64297;SDS011;50639;53.270;7.956;2023-10-09T11:55:47;13.07;;;4.53;;
64297;SDS011;50639;53.270;7.956;2023-10-09T11:58:14;11.73;;;4.97;;
64297;SDS011;50639;53.270;7.956;2023-10-09T12:00:50;12.82;;;4.03;;
64297;SDS011;50639;53.270;7.956;2023-10-09T12:03:21;13.27;;;4.57;;
64297;SDS011;50639;53.270;7.956;2023-10-09T12:05:54;14.57;;;4.63;;
64297;SDS011;50639;53.270;7.956;2023-10-09T12:08:21;12.02;;;4.60;;
64297;SDS011;50639;53.270;7.956;2023-10-09T12:10:53;12.00;;;3.67;;
64297;SDS011;50639;53.270;7.956;2023-10-09T12:13:20;17.10;;;4.85;;
64297;SDS011;50639;53.270;7.956;2023-10-09T12:15:48;11.25;;;3.85;;
64297;SDS011;50639;53.270;7.956;2023-10-09T12:18:14;18.17;;;4.53;;
64297;SDS011;50639;53.270;7.956;2023-10-09T12:20:43;14.80;;;4.20;;
64297;SDS011;50639;53.270;7.956;2023-10-09T12:23:16;19.85;;;4.72;;
64297;SDS011;50639;53.270;7.956;2023-10-09T12:25:42;16.90;;;4.28;;
64297;SDS011;50639;53.270;7.956;2023-10-09T12:28:10;13.93;;;4.53;;
64297;SDS011;50639;53.270;7.956;2023-10-09T12:33:05;15.70;;;4.28;;
64297;SDS011;50639;53.270;7.956;2023-10-09T12:35:36;14.60;;;4.15;;
64297;SDS011;50639;53.270;7.956;2023-10-09T12:38:02;13.70;;;4.35;;
64297;SDS011;50639;53.270;7.956;2023-10-09T12:40:28;12.20;;;4.45;;
64297;SDS011;50639;53.270;7.956;2023-10-09T12:42:56;14.10;;;4.70;;
64297;SDS011;50639;53.270;7.956;2023-10-09T12:45:25;14.43;;;4.00;;
64297;SDS011;50639;53.270;7.956;2023-10-09T12:48:00;16.85;;;4.30;;
64297;SDS011;50639;53.270;7.956;2023-10-09T12:50:31;16.60;;;4.85;;
64297;SDS011;50639;53.270;7.956;2023-10-09T12:52:59;16.70;;;4.63;;
64297;SDS011;50639;53.270;7.956;2023-10-09T12:55:30;16.30;;;4.68;;
64297;SDS011;50639;53.270;7.956;2023-10-09T12:58:01;14.05;;;4.55;;
64297;SDS011;50639;53.270;7.956;2023-10-09T13:00:33;15.57;;;4.32;;
64297;SDS011;50639;53.270;7.956;2023-10-09T13:03:02;24.13;;;4.78;;
64297;SDS011;50639;53.270;7.956;2023-10-09T13:05:39;20.13;;;4.47;;
64297;SDS011;50639;53.270;7.956;2023-10-09T13:08:11;14.95;;;4.47;;
64297;SDS011;50639;53.270;7.956;2023-10-09T13:10:36;16.50;;;4.85;;
64297;SDS011;50639;53.270;7.956;2023-10-09T13:13:03;16.40;;;4.67;;
64297;SDS011;50639;53.270;7.956;2023-10-09T13:15:31;16.27;;;5.35;;
64297;SDS011;50639;53.270;7.956;2023-10-09T13:18:08;14.80;;;4.43;;
64297;SDS011;50639;53.270;7.956;2023-10-09T13:20:33;17.88;;;4.75;;
64297;SDS011;50639;53.270;7.956;2023-10-09T13:23:00;16.40;;;4.60;;
64297;SDS011;50639;53.270;7.956;2023-10-09T13:25:26;16.83;;;4.93;;
64297;SDS011;50639;53.270;7.956;2023-10-09T13:27:57;13.68;;;4.70;;
64297;SDS011;50639;53.270;7.956;2023-10-09T13:30:22;18.50;;;4.72;;
64297;SDS011;50639;53.270;7.956;2023-10-09T13:32:49;13.93;;;4.05;;
64297;SDS011;50639;53.270;7.956;2023-10-09T13:35:18;18.03;;;4.93;;
64297;SDS011;50639;53.270;7.956;2023-10-09T13:37:44;18.00;;;4.60;;
64297;SDS011;50639;53.270;7.956;2023-10-09T13:40:21;13.20;;;4.30;;
64297;SDS011;50639;53.270;7.956;2023-10-09T13:42:56;15.93;;;3.95;;
64297;SDS011;50639;53.270;7.956;2023-10-09T13:45:27;14.70;;;3.65;;
64297;SDS011;50639;53.270;7.956;2023-10-09T13:47:55;12.98;;;3.72;;
64297;SDS011;50639;53.270;7.956;2023-10-09T13:50:24;14.30;;;4.18;;
64297;SDS011;50639;53.270;7.956;2023-10-09T13:52:54;17.05;;;3.88;;
64297;SDS011;50639;53.270;7.956;2023-10-09T13:55:21;14.48;;;4.25;;
64297;SDS011;50639;53.270;7.956;2023-10-09T13:57:47;12.48;;;3.60;;
64297;SDS011;50639;53.270;7.956;2023-10-09T14:00:13;14.20;;;4.30;;
64297;SDS011;50639;53.270;7.956;2023-10-09T14:02:58;13.30;;;3.80;;
64297;SDS011;50639;53.270;7.956;2023-10-09T14:05:27;13.55;;;4.30;;
64297;SDS011;50639;53.270;7.956;2023-10-09T14:07:53;8.93;;;2.95;;
64297;SDS011;50639;53.270;7.956;2023-10-09T14:10:18;12.80;;;3.90;;
64297;SDS011;50639;53.270;7.956;2023-10-09T14:12:50;11.50;;;3.63;;
64297;SDS011;50639;53.270;7.956;2023-10-09T14:15:19;7.72;;;3.38;;
64297;SDS011;50639;53.270;7.956;2023-10-09T14:17:45;14.57;;;3.67;;
64297;SDS011;50639;53.270;7.956;2023-10-09T14:20:12;12.55;;;3.30;;
64297;SDS011;50639;53.270;7.956;2023-10-09T14:23:02;14.48;;;3.95;;
64297;SDS011;50639;53.270;7.956;2023-10-09T14:25:37;13.02;;;3.25;;
64297;SDS011;50639;53.270;7.956;2023-10-09T14:28:07;12.23;;;3.30;;
64297;SDS011;50639;53.270;7.956;2023-10-09T14:30:34;17.30;;;3.47;;
64297;SDS011;50639;53.270;7.956;2023-10-09T14:33:11;13.48;;;3.25;;
64297;SDS011;50639;53.270;7.956;2023-10-09T14:35:40;14.90;;;3.30;;
64297;SDS011;50639;53.270;7.956;2023-10-09T14:38:07;11.00;;;3.10;;
64297;SDS011;50639;53.270;7.956;2023-10-09T14:40:44;12.93;;;3.67;;
64297;SDS011;50639;53.270;7.956;2023-10-09T14:43:10;13.18;;;3.45;;
64297;SDS011;50639;53.270;7.956;2023-10-09T14:45:46;11.20;;;3.13;;
64297;SDS011;50639;53.270;7.956;2023-10-09T14:48:14;11.43;;;3.10;;
64297;SDS011;50639;53.270;7.956;2023-10-09T14:50:51;11.02;;;3.35;;
64297;SDS011;50639;53.270;7.956;2023-10-09T14:53:29;9.00;;;3.05;;
64297;SDS011;50639;53.270;7.956;2023-10-09T14:55:55;11.93;;;3.15;;
64297;SDS011;50639;53.270;7.956;2023-10-09T14:58:21;15.45;;;3.38;;
64297;SDS011;50639;53.270;7.956;2023-10-09T15:00:50;12.40;;;3.10;;
64297;SDS011;50639;53.270;7.956;2023-10-09T15:03:19;12.50;;;3.15;;
64297;SDS011;50639;53.270;7.956;2023-10-09T15:05:45;9.07;;;2.90;;
64297;SDS011;50639;53.270;7.956;2023-10-09T15:08:11;15.57;;;4.00;;
64297;SDS011;50639;53.270;7.956;2023-10-09T15:10:46;10.93;;;2.88;;
64297;SDS011;50639;53.270;7.956;2023-10-09T15:13:14;11.00;;;3.90;;
64297;SDS011;50639;53.270;7.956;2023-10-09T15:15:44;12.32;;;3.13;;
64297;SDS011;50639;53.270;7.956;2023-10-09T15:18:10;11.68;;;3.22;;
64297;SDS011;50639;53.270;7.956;2023-10-09T15:20:40;13.38;;;2.70;;
64297;SDS011;50639;53.270;7.956;2023-10-09T15:23:06;11.10;;;2.60;;
64297;SDS011;50639;53.270;7.956;2023-10-09T15:25:33;10.35;;;2.60;;
64297;SDS011;50639;53.270;7.956;2023-10-09T15:27:59;10.85;;;2.80;;
64297;SDS011;50639;53.270;7.956;2023-10-09T15:30:26;13.45;;;2.83;;
64297;SDS011;50639;53.270;7.956;2023-10-09T15:32:52;10.95;;;2.30;;